Terminal Aerodrome Forecast
Issued by NWS

Home | Current Version | Previous Version | Text Only | Print | Product List | Glossary On
Versions: 1 2 3 4 5 6 7 8 9 10 11 12
000
FTUS45 KABQ 221800 RRA
TAFTCC
TAF
KTCC 221800Z 2218/2318 23018G28KT P6SM FEW080 SCT120
     FM230000 23018G28KT P6SM VCTS SCT070CB BKN100
      TEMPO 2300/2303 VRB15G25KT 5SM -TSRA BKN040CB
     FM230300 25011KT P6SM -SHRA BKN050
     FM230800 23010KT P6SM SKC=

USA.gov is the U.S. government's official web portal to all federal, state and local government web resources and services.